createdAt,value
2019-03-08T00:01:35.470Z,34.40
2019-03-08T00:04:03.760Z,32.65
2019-03-08T00:06:31.731Z,31.75
2019-03-08T00:08:59.568Z,30.40
2019-03-08T00:11:27.449Z,30.45
2019-03-08T00:13:55.342Z,28.65
2019-03-08T00:16:23.142Z,29.07
2019-03-08T00:18:50.934Z,27.82
2019-03-08T00:21:19.152Z,29.95
2019-03-08T00:23:46.843Z,29.23
2019-03-08T00:26:14.689Z,30.97
2019-03-08T00:28:42.432Z,30.80
2019-03-08T00:31:11.546Z,30.88
2019-03-08T00:33:39.584Z,32.45
2019-03-08T00:36:07.753Z,34.10
2019-03-08T00:38:35.414Z,33.92
2019-03-08T00:41:05.654Z,33.83
2019-03-08T00:43:33.523Z,36.77
2019-03-08T00:46:01.692Z,33.08
2019-03-08T00:48:29.763Z,35.17
2019-03-08T00:50:59.841Z,34.05
2019-03-08T00:53:27.836Z,34.25
2019-03-08T00:55:56.844Z,31.37
2019-03-08T00:58:24.723Z,32.88
2019-03-08T01:00:58.336Z,33.25
2019-03-08T01:03:26.225Z,31.00
2019-03-08T01:05:54.540Z,30.12
2019-03-08T01:08:22.383Z,27.73
2019-03-08T01:10:54.959Z,26.57
2019-03-08T01:13:23.092Z,25.57
2019-03-08T01:15:50.897Z,26.90
2019-03-08T01:18:19.123Z,27.77
2019-03-08T01:20:47.740Z,26.35
2019-03-08T01:23:15.687Z,28.92
2019-03-08T01:25:44.742Z,27.60
2019-03-08T01:28:13.596Z,28.10
2019-03-08T01:30:49.649Z,28.95
2019-03-08T01:33:20.088Z,31.65
2019-03-08T01:35:47.814Z,34.88
2019-03-08T01:38:15.878Z,38.30
2019-03-08T01:40:46.013Z,35.70
2019-03-08T01:43:13.784Z,36.15
2019-03-08T01:45:41.652Z,34.27
2019-03-08T01:48:09.973Z,34.70
2019-03-08T01:50:37.709Z,35.50
2019-03-08T01:53:05.947Z,35.08
2019-03-08T01:55:35.973Z,34.27
2019-03-08T01:58:03.888Z,35.00
2019-03-08T02:00:35.157Z,35.50
2019-03-08T02:03:03.902Z,37.03
2019-03-08T02:05:31.958Z,37.98
2019-03-08T02:07:59.839Z,41.02
2019-03-08T02:10:27.670Z,36.70
2019-03-08T02:12:55.448Z,40.90
2019-03-08T02:15:23.538Z,43.42
2019-03-08T02:17:51.430Z,43.90
2019-03-08T02:20:20.069Z,43.65
2019-03-08T02:22:48.308Z,44.35
2019-03-08T02:25:16.194Z,44.08
2019-03-08T02:27:44.553Z,42.15
2019-03-08T02:30:14.234Z,39.90
2019-03-08T02:32:43.275Z,41.18
2019-03-08T02:35:11.576Z,40.23
2019-03-08T02:37:39.488Z,41.25
2019-03-08T02:40:29.759Z,41.88
2019-03-08T02:43:00.234Z,40.10
2019-03-08T02:45:29.435Z,42.35
2019-03-08T02:47:57.584Z,39.98
2019-03-08T02:50:26.925Z,39.05
2019-03-08T02:52:54.904Z,38.70
2019-03-08T02:55:22.836Z,41.80
2019-03-08T02:57:51.527Z,38.45
2019-03-08T03:00:19.616Z,37.48
2019-03-08T03:02:47.706Z,37.60
2019-03-08T03:05:16.700Z,36.95
2019-03-08T03:07:44.856Z,36.70
2019-03-08T03:10:13.330Z,33.92
2019-03-08T03:12:41.702Z,35.63
2019-03-08T03:15:09.597Z,35.48
2019-03-08T03:17:37.756Z,33.48
2019-03-08T03:20:06.210Z,32.75
2019-03-08T03:22:34.206Z,32.30
2019-03-08T03:25:01.885Z,32.33
2019-03-08T03:27:29.967Z,30.97
2019-03-08T03:29:57.854Z,31.23
2019-03-08T03:32:25.664Z,30.00
2019-03-08T03:34:54.525Z,30.23
2019-03-08T03:37:22.284Z,29.67
2019-03-08T03:39:50.098Z,29.63
2019-03-08T03:42:18.033Z,29.27
2019-03-08T03:44:45.903Z,29.82
2019-03-08T03:47:13.671Z,30.27
2019-03-08T03:49:41.634Z,29.65
2019-03-08T03:52:09.413Z,31.25
2019-03-08T03:54:37.333Z,31.55
2019-03-08T03:57:06.477Z,30.85
2019-03-08T03:59:34.405Z,32.75
2019-03-08T04:02:02.188Z,29.45
2019-03-08T04:04:30.051Z,31.45
2019-03-08T04:06:59.070Z,30.92
2019-03-08T04:09:27.024Z,32.73
2019-03-08T04:11:54.824Z,32.75
2019-03-08T04:14:23.389Z,34.40
2019-03-08T04:16:52.455Z,30.60
2019-03-08T04:19:24.276Z,34.48
2019-03-08T04:21:52.013Z,32.83
2019-03-08T04:24:20.770Z,33.50
2019-03-08T04:26:48.496Z,35.50
2019-03-08T04:29:17.416Z,33.55
2019-03-08T04:31:45.514Z,34.50
2019-03-08T04:34:13.484Z,33.45
2019-03-08T04:36:41.179Z,35.20
2019-03-08T04:39:09.179Z,34.63
2019-03-08T04:41:36.994Z,35.28
2019-03-08T04:44:04.915Z,38.60
2019-03-08T04:46:33.364Z,40.00
2019-03-08T04:49:01.482Z,36.75
2019-03-08T04:51:29.269Z,38.50
2019-03-08T04:53:56.957Z,37.88
2019-03-08T04:56:25.063Z,38.35
2019-03-08T04:58:54.197Z,37.78
2019-03-08T05:01:23.212Z,38.05
2019-03-08T05:03:51.175Z,41.20
2019-03-08T05:06:18.950Z,43.68
2019-03-08T05:08:46.875Z,43.60
2019-03-08T05:11:14.716Z,42.25
2019-03-08T05:13:42.416Z,40.55
2019-03-08T05:16:10.378Z,43.50
2019-03-08T05:18:38.447Z,42.98
2019-03-08T05:21:06.558Z,40.65
2019-03-08T05:23:34.544Z,42.05
2019-03-08T05:26:02.376Z,41.05
2019-03-08T05:28:30.677Z,40.83
2019-03-08T05:31:02.641Z,43.58
2019-03-08T05:33:30.430Z,42.93
2019-03-08T05:35:58.118Z,44.50
2019-03-08T05:38:26.257Z,42.70
2019-03-08T05:40:54.056Z,42.10
2019-03-08T05:43:21.839Z,46.85
2019-03-08T05:45:52.258Z,52.83
2019-03-08T05:48:20.033Z,53.75
2019-03-08T05:50:47.973Z,57.85
2019-03-08T05:53:15.785Z,56.75
2019-03-08T05:55:43.456Z,50.43
2019-03-08T05:58:11.490Z,48.20
2019-03-08T06:00:39.480Z,46.63
2019-03-08T06:03:07.298Z,46.73
2019-03-08T06:05:36.362Z,48.05
2019-03-08T06:08:04.321Z,51.30
2019-03-08T06:10:36.347Z,54.23
2019-03-08T06:13:05.328Z,54.85
2019-03-08T06:15:34.342Z,57.67
2019-03-08T06:18:03.034Z,54.65
2019-03-08T06:20:30.939Z,54.98
2019-03-08T06:22:58.841Z,58.45
2019-03-08T06:25:26.669Z,57.88
2019-03-08T06:27:54.644Z,54.25
2019-03-08T06:30:22.547Z,53.38
2019-03-08T06:32:51.210Z,54.00
2019-03-08T06:35:19.113Z,55.40
2019-03-08T06:37:47.151Z,52.53
2019-03-08T06:40:15.216Z,48.70
2019-03-08T06:42:42.939Z,50.67
2019-03-08T06:45:12.177Z,48.70
2019-03-08T06:47:39.910Z,50.23
2019-03-08T06:50:09.743Z,50.73
2019-03-08T06:52:37.977Z,49.55
2019-03-08T06:55:07.526Z,45.92
2019-03-08T06:57:35.859Z,44.67
2019-03-08T07:00:19.174Z,45.10
2019-03-08T07:02:47.172Z,45.83
2019-03-08T07:05:16.348Z,46.27
2019-03-08T07:07:44.127Z,47.40
2019-03-08T07:10:12.167Z,44.70
2019-03-08T07:12:44.646Z,43.50
2019-03-08T07:15:12.738Z,42.33
2019-03-08T07:17:40.724Z,37.50
2019-03-08T07:20:24.143Z,37.10
2019-03-08T07:23:03.630Z,32.77
2019-03-08T07:25:54.539Z,31.87
2019-03-08T07:28:47.778Z,38.33
2019-03-08T07:31:38.178Z,36.90
2019-03-08T07:34:11.415Z,34.20
2019-03-08T07:36:56.776Z,32.97
2019-03-08T07:39:47.535Z,34.17
2019-03-08T07:42:23.336Z,36.97
2019-03-08T07:45:16.907Z,36.93
2019-03-08T07:48:11.209Z,34.80
2019-03-08T07:50:59.180Z,32.63
2019-03-08T07:53:35.879Z,33.83
2019-03-08T07:56:18.221Z,31.27
2019-03-08T07:59:04.592Z,33.00
2019-03-08T08:01:42.931Z,32.33
2019-03-08T08:04:28.182Z,32.80
2019-03-08T08:07:23.505Z,32.60
2019-03-08T08:10:08.019Z,32.80
2019-03-08T08:12:58.131Z,31.23
2019-03-08T08:15:48.981Z,33.87
2019-03-08T08:18:27.144Z,32.27
2019-03-08T08:21:07.102Z,29.83
2019-03-08T08:23:58.465Z,33.13
2019-03-08T08:26:44.656Z,32.40
2019-03-08T08:29:35.339Z,33.10
2019-03-08T08:32:10.161Z,30.30
2019-03-08T08:34:54.931Z,30.10
2019-03-08T08:37:45.152Z,29.13
2019-03-08T08:40:23.540Z,29.40
2019-03-08T08:43:23.283Z,27.97
2019-03-08T08:46:10.498Z,25.63
2019-03-08T08:48:56.894Z,26.93
2019-03-08T08:51:47.152Z,28.10
2019-03-08T08:54:27.895Z,27.80
2019-03-08T08:57:03.032Z,29.17
2019-03-08T08:59:57.110Z,28.93
2019-03-08T09:02:45.406Z,31.37
2019-03-08T09:05:35.866Z,27.67
2019-03-08T09:08:32.289Z,24.53
2019-03-08T09:11:08.255Z,25.63
2019-03-08T09:13:48.100Z,24.27
2019-03-08T09:16:29.491Z,25.83
2019-03-08T09:19:16.699Z,22.73
2019-03-08T09:21:54.005Z,24.10
2019-03-08T09:24:37.806Z,24.90
2019-03-08T09:27:17.362Z,27.17
2019-03-08T09:30:13.829Z,27.37
2019-03-08T09:32:59.465Z,26.47
2019-03-08T09:35:49.778Z,25.20
2019-03-08T09:38:48.966Z,27.03
2019-03-08T09:41:35.175Z,26.90
2019-03-08T09:44:31.597Z,27.53
2019-03-08T09:47:22.005Z,28.50
2019-03-08T09:50:14.281Z,30.80
2019-03-08T09:52:48.570Z,28.50
2019-03-08T09:55:33.352Z,26.00
2019-03-08T09:58:36.044Z,28.87
2019-03-08T10:01:23.145Z,28.27
2019-03-08T10:04:10.622Z,27.63
2019-03-08T10:07:04.334Z,26.30
2019-03-08T10:09:44.496Z,27.10
2019-03-08T10:12:24.438Z,25.33
2019-03-08T10:15:26.762Z,29.07
2019-03-08T10:18:24.804Z,26.67
2019-03-08T10:21:18.199Z,25.87
2019-03-08T10:24:04.030Z,25.03
2019-03-08T10:26:57.467Z,27.03
2019-03-08T10:29:30.893Z,25.97
2019-03-08T10:32:18.140Z,27.53
2019-03-08T10:35:00.814Z,27.50
2019-03-08T10:37:46.247Z,26.83
2019-03-08T10:40:36.726Z,28.60
2019-03-08T10:43:29.864Z,29.77
2019-03-08T10:46:18.576Z,26.30
2019-03-08T10:49:04.818Z,28.43
2019-03-08T10:51:48.709Z,28.33
2019-03-08T10:54:22.973Z,29.27
2019-03-08T10:57:08.657Z,27.67
2019-03-08T10:59:44.223Z,30.83
2019-03-08T11:02:23.634Z,30.40
2019-03-08T11:05:13.841Z,29.37
2019-03-08T11:07:58.236Z,28.30
2019-03-08T11:10:45.448Z,27.17
2019-03-08T11:13:28.006Z,25.30
2019-03-08T11:16:15.536Z,25.63
2019-03-08T11:18:58.978Z,24.33
2019-03-08T11:21:55.819Z,26.70
2019-03-08T11:24:42.206Z,20.23
2019-03-08T11:27:41.592Z,21.10
2019-03-08T11:30:25.977Z,23.20
2019-03-08T11:33:13.579Z,20.87
2019-03-08T11:35:51.941Z,19.57
2019-03-08T11:38:46.396Z,21.50
2019-03-08T11:41:33.973Z,19.33
2019-03-08T11:44:24.162Z,18.87
2019-03-08T11:47:10.442Z,18.10
2019-03-08T11:50:09.835Z,17.20
2019-03-08T11:53:12.559Z,12.93
2019-03-08T11:56:05.480Z,18.17
2019-03-08T11:59:01.853Z,12.90
2019-03-08T12:01:43.037Z,14.67
2019-03-08T12:04:30.306Z,9.47
2019-03-08T12:07:20.453Z,10.33
2019-03-08T12:10:13.734Z,10.57
2019-03-08T12:13:01.156Z,7.10
2019-03-08T12:15:51.539Z,4.60
2019-03-08T12:18:46.092Z,4.90
2019-03-08T12:21:28.174Z,5.43
2019-03-08T12:24:24.519Z,5.30
2019-03-08T12:27:00.073Z,5.17
2019-03-08T12:29:53.738Z,5.80
2019-03-08T12:32:28.052Z,4.80
2019-03-08T12:35:27.419Z,5.33
2019-03-08T12:38:23.660Z,5.60
2019-03-08T12:41:10.152Z,5.10
2019-03-08T12:43:57.698Z,5.20
2019-03-08T12:46:46.362Z,5.30
2019-03-08T12:49:36.895Z,4.80
2019-03-08T12:52:42.413Z,5.47
2019-03-08T12:55:28.369Z,4.73
2019-03-08T12:58:31.077Z,5.30
2019-03-08T13:01:22.032Z,4.70
2019-03-08T13:04:15.572Z,5.53
2019-03-08T13:07:06.862Z,6.03
2019-03-08T13:09:47.899Z,6.20
2019-03-08T13:12:15.958Z,6.20
2019-03-08T13:14:46.162Z,5.60
2019-03-08T13:17:15.224Z,5.63
2019-03-08T13:19:43.459Z,5.70
2019-03-08T13:22:11.342Z,5.33
2019-03-08T13:24:39.078Z,5.10
2019-03-08T13:27:07.000Z,5.53
2019-03-08T13:29:34.994Z,6.03
2019-03-08T13:32:06.895Z,5.50
2019-03-08T13:34:34.661Z,5.10
2019-03-08T13:37:02.618Z,4.70
2019-03-08T13:39:30.800Z,4.30
2019-03-08T13:41:59.234Z,4.73
2019-03-08T13:44:27.332Z,5.30
2019-03-08T13:46:55.399Z,4.57
2019-03-08T13:49:23.347Z,4.50
2019-03-08T13:51:51.355Z,3.87
2019-03-08T13:54:20.511Z,4.47
2019-03-08T13:56:48.286Z,4.47
2019-03-08T13:59:16.222Z,4.93
2019-03-08T14:01:43.981Z,4.57
2019-03-08T14:04:11.957Z,5.10
2019-03-08T14:06:39.877Z,4.30
2019-03-08T14:09:09.847Z,4.97
2019-03-08T14:11:37.590Z,5.83
2019-03-08T14:14:12.427Z,5.10
2019-03-08T14:16:40.755Z,5.13
2019-03-08T14:19:10.587Z,4.90
2019-03-08T14:21:38.898Z,4.70
2019-03-08T14:24:12.036Z,4.70
2019-03-08T14:26:40.443Z,4.90
2019-03-08T14:29:08.351Z,4.50
2019-03-08T14:31:55.556Z,4.37
2019-03-08T14:34:23.671Z,5.13
2019-03-08T14:36:51.431Z,4.80
2019-03-08T14:39:19.568Z,5.00
2019-03-08T14:42:15.765Z,4.90
2019-03-08T14:45:09.249Z,5.00
2019-03-08T14:47:44.819Z,4.90
2019-03-08T14:50:14.128Z,5.13
2019-03-08T14:52:41.976Z,5.27
2019-03-08T14:55:13.744Z,5.13
2019-03-08T14:57:41.591Z,5.10
2019-03-08T15:00:15.850Z,4.80
2019-03-08T15:02:47.099Z,6.50
2019-03-08T15:05:15.420Z,5.20
2019-03-08T15:07:45.090Z,5.30
2019-03-08T15:10:15.077Z,5.53
2019-03-08T15:12:49.109Z,6.20
2019-03-08T15:15:15.924Z,5.63
2019-03-08T15:17:44.031Z,17.10
2019-03-08T15:20:15.334Z,6.10
2019-03-08T15:22:44.085Z,5.33
2019-03-08T15:25:13.979Z,6.40
2019-03-08T15:27:41.826Z,6.27
2019-03-08T15:30:11.715Z,6.60
2019-03-08T15:32:39.821Z,7.57
2019-03-08T15:35:09.870Z,8.27
2019-03-08T15:37:44.379Z,7.87
2019-03-08T15:40:10.444Z,7.47
2019-03-08T15:42:38.656Z,7.70
2019-03-08T15:45:07.261Z,7.30
2019-03-08T15:47:36.297Z,7.97
2019-03-08T15:50:08.273Z,7.23
2019-03-08T15:52:37.728Z,8.20
2019-03-08T15:55:05.712Z,7.40
2019-03-08T15:57:34.571Z,7.10
2019-03-08T16:00:04.346Z,6.33
2019-03-08T16:02:33.589Z,7.47
2019-03-08T16:05:03.827Z,7.57
2019-03-08T16:07:33.679Z,7.33
2019-03-08T16:10:01.759Z,7.85
2019-03-08T16:12:31.179Z,7.53
2019-03-08T16:15:00.794Z,9.53
2019-03-08T16:17:28.450Z,8.75
2019-03-08T16:19:58.783Z,9.58
2019-03-08T16:22:28.488Z,10.53
2019-03-08T16:24:56.758Z,9.18
2019-03-08T16:27:25.104Z,9.60
2019-03-08T16:29:52.870Z,9.30
2019-03-08T16:32:33.268Z,11.30
2019-03-08T16:35:01.357Z,9.43
2019-03-08T16:38:03.631Z,9.53
2019-03-08T16:41:06.395Z,8.28
2019-03-08T16:43:42.149Z,8.40
2019-03-08T16:46:27.999Z,8.40
2019-03-08T16:49:01.133Z,8.05
2019-03-08T16:51:37.272Z,8.65
2019-03-08T16:54:28.044Z,9.68
2019-03-08T16:57:18.154Z,8.75
2019-03-08T17:00:06.719Z,8.35
2019-03-08T17:02:54.391Z,8.70
2019-03-08T17:05:34.886Z,8.45
2019-03-08T17:08:22.516Z,8.73
2019-03-08T17:11:13.134Z,8.28
2019-03-08T17:13:53.159Z,8.73
2019-03-08T17:16:38.981Z,8.23
2019-03-08T17:19:38.221Z,9.30
2019-03-08T17:22:18.510Z,9.48
2019-03-08T17:24:59.304Z,7.47
2019-03-08T17:27:58.835Z,6.97
2019-03-08T17:30:43.450Z,7.78
2019-03-08T17:33:25.543Z,8.10
2019-03-08T17:36:05.157Z,6.40
2019-03-08T17:38:40.951Z,6.87
2019-03-08T17:41:20.286Z,7.62
2019-03-08T17:44:08.635Z,7.25
2019-03-08T17:46:56.150Z,7.65
2019-03-08T17:49:46.472Z,6.33
2019-03-08T17:52:32.626Z,6.97
2019-03-08T17:55:22.982Z,6.60
2019-03-08T17:58:10.559Z,7.67
2019-03-08T18:01:03.881Z,7.22
2019-03-08T18:03:55.743Z,8.05
2019-03-08T18:06:49.528Z,6.22
2019-03-08T18:09:24.262Z,5.75
2019-03-08T18:12:15.701Z,6.25
2019-03-08T18:15:08.980Z,5.80
2019-03-08T18:17:49.804Z,6.58
2019-03-08T18:20:33.677Z,6.30
2019-03-08T18:23:13.099Z,7.25
2019-03-08T18:25:51.998Z,7.75
2019-03-08T18:28:42.114Z,7.53
2019-03-08T18:31:38.767Z,6.72
2019-03-08T18:34:25.921Z,6.95
2019-03-08T18:37:09.205Z,8.10
2019-03-08T18:39:53.956Z,8.53
2019-03-08T18:42:40.147Z,8.18
2019-03-08T18:45:32.223Z,8.25
2019-03-08T18:48:10.093Z,7.75
2019-03-08T18:51:09.469Z,9.03
2019-03-08T18:53:47.599Z,9.58
2019-03-08T18:56:39.292Z,10.75
2019-03-08T18:59:20.945Z,9.25
2019-03-08T19:02:17.227Z,9.38
2019-03-08T19:05:03.227Z,8.43
2019-03-08T19:07:56.898Z,9.85
2019-03-08T19:10:53.247Z,9.15
2019-03-08T19:13:39.633Z,9.60
2019-03-08T19:16:35.569Z,10.40
2019-03-08T19:19:25.892Z,9.30
2019-03-08T19:22:02.848Z,10.08
2019-03-08T19:24:46.543Z,8.15
2019-03-08T19:27:42.867Z,10.65
2019-03-08T19:30:31.577Z,10.50
2019-03-08T19:33:17.472Z,12.37
2019-03-08T19:36:05.020Z,13.18
2019-03-08T19:38:53.856Z,12.07
2019-03-08T19:41:44.293Z,11.60
2019-03-08T19:44:24.821Z,11.03
2019-03-08T19:47:18.141Z,10.45
2019-03-08T19:50:04.128Z,11.25
2019-03-08T19:52:45.666Z,11.63
2019-03-08T19:55:39.988Z,11.43
2019-03-08T19:58:34.010Z,10.20
2019-03-08T20:01:21.158Z,12.00
2019-03-08T20:04:17.581Z,11.35
2019-03-08T20:06:55.566Z,10.90
2019-03-08T20:09:45.840Z,11.03
2019-03-08T20:12:36.787Z,14.43
2019-03-08T20:15:15.659Z,11.78
2019-03-08T20:18:12.094Z,10.68
2019-03-08T20:21:09.282Z,11.03
2019-03-08T20:23:56.780Z,15.60
2019-03-08T20:26:31.447Z,16.85
2019-03-08T20:29:21.377Z,15.50
2019-03-08T20:32:14.633Z,15.75
2019-03-08T20:35:01.990Z,16.95
2019-03-08T20:37:41.668Z,18.32
2019-03-08T20:40:37.102Z,18.55
2019-03-08T20:43:09.449Z,16.82
2019-03-08T20:45:57.643Z,14.70
2019-03-08T20:48:25.363Z,18.35
2019-03-08T20:50:53.167Z,16.87
2019-03-08T20:53:21.060Z,17.70
2019-03-08T20:55:50.221Z,19.98
2019-03-08T20:58:17.885Z,18.75
2019-03-08T21:00:45.937Z,20.15
2019-03-08T21:03:13.834Z,16.77
2019-03-08T21:05:41.618Z,17.37
2019-03-08T21:08:10.564Z,18.25
2019-03-08T21:10:40.248Z,17.37
2019-03-08T21:13:08.110Z,17.23
2019-03-08T21:15:38.013Z,18.25
2019-03-08T21:18:05.801Z,18.87
2019-03-08T21:20:33.774Z,17.95
2019-03-08T21:23:01.561Z,22.67
2019-03-08T21:25:31.551Z,24.47
2019-03-08T21:27:59.320Z,23.85
2019-03-08T21:30:27.007Z,24.40
2019-03-08T21:32:54.731Z,23.27
2019-03-08T21:35:22.683Z,24.92
2019-03-08T21:37:50.852Z,26.73
2019-03-08T21:40:19.870Z,25.72
2019-03-08T21:42:47.814Z,26.85
2019-03-08T21:45:18.345Z,27.58
2019-03-08T21:47:46.445Z,25.02
2019-03-08T21:50:14.898Z,26.77
2019-03-08T21:52:42.980Z,27.00
2019-03-08T21:55:10.911Z,27.77
2019-03-08T21:57:38.715Z,24.90
2019-03-08T22:00:12.834Z,26.25
2019-03-08T22:02:40.991Z,26.30
2019-03-08T22:05:09.066Z,27.37
2019-03-08T22:07:37.577Z,25.05
2019-03-08T22:10:29.018Z,26.93
2019-03-08T22:12:56.987Z,26.77
2019-03-08T22:15:25.312Z,26.45
2019-03-08T22:17:53.227Z,23.52
2019-03-08T22:20:29.188Z,26.80
2019-03-08T22:22:57.323Z,25.27
2019-03-08T22:25:26.287Z,26.07
2019-03-08T22:27:54.045Z,28.38
2019-03-08T22:30:23.238Z,27.32
2019-03-08T22:32:51.431Z,26.95
2019-03-08T22:35:19.390Z,25.10
2019-03-08T22:37:47.092Z,20.62
2019-03-08T22:40:15.446Z,25.77
2019-03-08T22:42:43.309Z,22.75
2019-03-08T22:45:14.703Z,19.67
2019-03-08T22:47:42.860Z,17.80
2019-03-08T22:50:11.335Z,15.70
2019-03-08T22:52:39.383Z,15.65
2019-03-08T22:55:08.254Z,17.23
2019-03-08T22:57:37.043Z,20.25
2019-03-08T23:00:27.039Z,19.48
2019-03-08T23:02:56.625Z,20.72
2019-03-08T23:05:25.179Z,17.15
2019-03-08T23:07:53.236Z,15.55
2019-03-08T23:10:21.444Z,16.97
2019-03-08T23:12:49.234Z,16.90
2019-03-08T23:15:17.675Z,18.75
2019-03-08T23:17:45.827Z,17.52
2019-03-08T23:20:15.661Z,18.40
2019-03-08T23:22:43.582Z,20.75
2019-03-08T23:25:14.097Z,16.65
2019-03-08T23:27:49.728Z,18.10
2019-03-08T23:30:25.214Z,16.97
2019-03-08T23:32:54.380Z,16.42
2019-03-08T23:35:22.122Z,16.42
2019-03-08T23:37:49.775Z,15.48
2019-03-08T23:40:18.770Z,14.15
2019-03-08T23:42:46.573Z,13.50
2019-03-08T23:45:14.512Z,15.30
2019-03-08T23:47:43.232Z,14.78
2019-03-08T23:50:14.408Z,14.73
2019-03-08T23:52:43.722Z,15.20
2019-03-08T23:55:11.639Z,14.73
2019-03-08T23:57:39.521Z,14.45
